sensor_id;sensor_type;location;lat;lon;timestamp;P1;durP1;ratioP1;P2;durP2;ratioP2
2041;SDS011;1026;51.460;7.252;2022-08-11T00:01:14;2.17;;;2.07;;
2041;SDS011;1026;51.460;7.252;2022-08-11T00:03:45;2.63;;;2.40;;
2041;SDS011;1026;51.460;7.252;2022-08-11T00:06:13;3.20;;;2.97;;
2041;SDS011;1026;51.460;7.252;2022-08-11T00:08:48;2.33;;;2.13;;
2041;SDS011;1026;51.460;7.252;2022-08-11T00:11:15;2.47;;;2.27;;
2041;SDS011;1026;51.460;7.252;2022-08-11T00:13:43;2.40;;;2.20;;
2041;SDS011;1026;51.460;7.252;2022-08-11T00:16:13;2.30;;;2.20;;
2041;SDS011;1026;51.460;7.252;2022-08-11T00:18:42;2.20;;;1.90;;
2041;SDS011;1026;51.460;7.252;2022-08-11T00:21:11;1.93;;;1.83;;
2041;SDS011;1026;51.460;7.252;2022-08-11T00:23:43;3.10;;;2.13;;
2041;SDS011;1026;51.460;7.252;2022-08-11T00:26:16;1.90;;;1.80;;
2041;SDS011;1026;51.460;7.252;2022-08-11T00:28:43;2.57;;;2.37;;
2041;SDS011;1026;51.460;7.252;2022-08-11T00:31:19;2.13;;;1.87;;
2041;SDS011;1026;51.460;7.252;2022-08-11T00:33:51;2.73;;;2.53;;
2041;SDS011;1026;51.460;7.252;2022-08-11T00:36:18;2.17;;;2.00;;
2041;SDS011;1026;51.460;7.252;2022-08-11T00:38:48;2.60;;;2.43;;
2041;SDS011;1026;51.460;7.252;2022-08-11T00:41:22;3.20;;;2.37;;
2041;SDS011;1026;51.460;7.252;2022-08-11T00:44:11;1.80;;;1.70;;
2041;SDS011;1026;51.460;7.252;2022-08-11T00:58:17;2.47;;;2.27;;
2041;SDS011;1026;51.460;7.252;2022-08-11T01:01:08;2.90;;;2.70;;
2041;SDS011;1026;51.460;7.252;2022-08-11T01:12:30;2.90;;;2.70;;
2041;SDS011;1026;51.460;7.252;2022-08-11T01:15:13;2.27;;;2.10;;
2041;SDS011;1026;51.460;7.252;2022-08-11T01:29:10;2.50;;;2.30;;
2041;SDS011;1026;51.460;7.252;2022-08-11T01:46:30;2.60;;;2.10;;
2041;SDS011;1026;51.460;7.252;2022-08-11T01:51:44;2.50;;;2.30;;
2041;SDS011;1026;51.460;7.252;2022-08-11T01:54:30;3.73;;;1.73;;
2041;SDS011;1026;51.460;7.252;2022-08-11T01:57:03;2.50;;;2.30;;
2041;SDS011;1026;51.460;7.252;2022-08-11T01:59:35;2.10;;;2.00;;
2041;SDS011;1026;51.460;7.252;2022-08-11T02:05:13;2.27;;;2.07;;
2041;SDS011;1026;51.460;7.252;2022-08-11T02:20:09;3.00;;;2.10;;
2041;SDS011;1026;51.460;7.252;2022-08-11T02:22:05;2.90;;;2.20;;
2041;SDS011;1026;51.460;7.252;2022-08-11T02:24:59;2.10;;;2.00;;
2041;SDS011;1026;51.460;7.252;2022-08-11T02:27:28;2.67;;;2.47;;
2041;SDS011;1026;51.460;7.252;2022-08-11T02:30:04;2.50;;;2.30;;
2041;SDS011;1026;51.460;7.252;2022-08-11T02:32:40;2.30;;;2.20;;
2041;SDS011;1026;51.460;7.252;2022-08-11T02:35:48;2.17;;;1.97;;
2041;SDS011;1026;51.460;7.252;2022-08-11T02:40:44;2.23;;;2.07;;
2041;SDS011;1026;51.460;7.252;2022-08-11T02:48:49;2.67;;;2.47;;
2041;SDS011;1026;51.460;7.252;2022-08-11T02:54:33;2.50;;;2.13;;
2041;SDS011;1026;51.460;7.252;2022-08-11T03:11:09;2.43;;;2.23;;
2041;SDS011;1026;51.460;7.252;2022-08-11T03:14:07;2.40;;;2.20;;
2041;SDS011;1026;51.460;7.252;2022-08-11T03:17:06;2.47;;;2.27;;
2041;SDS011;1026;51.460;7.252;2022-08-11T03:25:45;2.30;;;2.20;;
2041;SDS011;1026;51.460;7.252;2022-08-11T03:31:24;3.00;;;2.50;;
2041;SDS011;1026;51.460;7.252;2022-08-11T03:33:56;2.40;;;2.20;;
2041;SDS011;1026;51.460;7.252;2022-08-11T03:50:43;2.50;;;2.30;;
2041;SDS011;1026;51.460;7.252;2022-08-11T03:53:31;2.07;;;1.97;;
2041;SDS011;1026;51.460;7.252;2022-08-11T04:07:44;2.90;;;2.70;;
2041;SDS011;1026;51.460;7.252;2022-08-11T04:19:29;3.73;;;2.50;;
2041;SDS011;1026;51.460;7.252;2022-08-11T04:22:21;2.83;;;2.63;;
2041;SDS011;1026;51.460;7.252;2022-08-11T04:25:15;2.13;;;2.03;;
2041;SDS011;1026;51.460;7.252;2022-08-11T04:28:05;2.70;;;2.47;;
2041;SDS011;1026;51.460;7.252;2022-08-11T04:36:56;4.33;;;2.23;;
2041;SDS011;1026;51.460;7.252;2022-08-11T04:52:01;2.53;;;2.33;;
2041;SDS011;1026;51.460;7.252;2022-08-11T04:58:25;2.77;;;2.50;;
2041;SDS011;1026;51.460;7.252;2022-08-11T05:01:31;3.37;;;2.60;;
2041;SDS011;1026;51.460;7.252;2022-08-11T05:07:25;2.80;;;2.53;;
2041;SDS011;1026;51.460;7.252;2022-08-11T05:10:16;3.10;;;2.30;;
2041;SDS011;1026;51.460;7.252;2022-08-11T05:13:00;2.90;;;2.47;;
2041;SDS011;1026;51.460;7.252;2022-08-11T05:15:46;3.57;;;2.50;;
2041;SDS011;1026;51.460;7.252;2022-08-11T05:18:39;2.47;;;2.30;;
2041;SDS011;1026;51.460;7.252;2022-08-11T05:21:28;2.67;;;2.47;;
2041;SDS011;1026;51.460;7.252;2022-08-11T05:24:16;3.03;;;2.70;;
2041;SDS011;1026;51.460;7.252;2022-08-11T05:27:01;2.20;;;2.00;;
2041;SDS011;1026;51.460;7.252;2022-08-11T05:29:45;2.63;;;2.10;;
2041;SDS011;1026;51.460;7.252;2022-08-11T05:32:38;3.83;;;2.50;;
2041;SDS011;1026;51.460;7.252;2022-08-11T05:38:09;2.87;;;2.67;;
2041;SDS011;1026;51.460;7.252;2022-08-11T05:40:55;2.57;;;2.37;;
2041;SDS011;1026;51.460;7.252;2022-08-11T05:43:39;2.60;;;2.40;;
2041;SDS011;1026;51.460;7.252;2022-08-11T05:46:22;2.87;;;2.67;;
2041;SDS011;1026;51.460;7.252;2022-08-11T05:49:07;2.70;;;2.50;;
2041;SDS011;1026;51.460;7.252;2022-08-11T05:51:49;2.90;;;2.60;;
2041;SDS011;1026;51.460;7.252;2022-08-11T05:54:30;2.67;;;2.47;;
2041;SDS011;1026;51.460;7.252;2022-08-11T05:57:19;2.67;;;2.47;;
2041;SDS011;1026;51.460;7.252;2022-08-11T05:59:47;2.40;;;2.30;;
2041;SDS011;1026;51.460;7.252;2022-08-11T06:02:14;2.50;;;2.30;;
2041;SDS011;1026;51.460;7.252;2022-08-11T06:04:41;3.33;;;2.77;;
2041;SDS011;1026;51.460;7.252;2022-08-11T06:07:08;2.97;;;2.77;;
2041;SDS011;1026;51.460;7.252;2022-08-11T06:09:45;2.43;;;2.23;;
2041;SDS011;1026;51.460;7.252;2022-08-11T06:12:21;2.67;;;2.30;;
2041;SDS011;1026;51.460;7.252;2022-08-11T06:14:49;3.50;;;2.90;;
2041;SDS011;1026;51.460;7.252;2022-08-11T06:17:26;1.93;;;1.83;;
2041;SDS011;1026;51.460;7.252;2022-08-11T06:19:58;3.10;;;2.90;;
2041;SDS011;1026;51.460;7.252;2022-08-11T06:22:26;4.10;;;3.63;;
2041;SDS011;1026;51.460;7.252;2022-08-11T06:25:01;2.57;;;2.37;;
2041;SDS011;1026;51.460;7.252;2022-08-11T06:27:29;2.57;;;2.37;;
2041;SDS011;1026;51.460;7.252;2022-08-11T06:29:57;2.43;;;2.30;;
2041;SDS011;1026;51.460;7.252;2022-08-11T06:32:25;2.90;;;2.70;;
2041;SDS011;1026;51.460;7.252;2022-08-11T06:40:15;2.30;;;2.10;;
2041;SDS011;1026;51.460;7.252;2022-08-11T06:43:01;3.17;;;2.53;;
2041;SDS011;1026;51.460;7.252;2022-08-11T06:48:05;2.53;;;2.23;;
2041;SDS011;1026;51.460;7.252;2022-08-11T06:50:39;3.10;;;2.40;;
2041;SDS011;1026;51.460;7.252;2022-08-11T06:53:20;9.13;;;3.53;;
2041;SDS011;1026;51.460;7.252;2022-08-11T06:55:47;2.50;;;2.30;;
2041;SDS011;1026;51.460;7.252;2022-08-11T06:58:30;2.63;;;2.47;;
2041;SDS011;1026;51.460;7.252;2022-08-11T07:01:22;3.10;;;2.83;;
2041;SDS011;1026;51.460;7.252;2022-08-11T07:04:03;2.30;;;2.10;;
2041;SDS011;1026;51.460;7.252;2022-08-11T07:06:34;2.50;;;2.30;;
2041;SDS011;1026;51.460;7.252;2022-08-11T07:09:52;4.10;;;3.70;;
2041;SDS011;1026;51.460;7.252;2022-08-11T07:12:56;2.73;;;2.53;;
2041;SDS011;1026;51.460;7.252;2022-08-11T07:15:38;8.90;;;4.30;;
2041;SDS011;1026;51.460;7.252;2022-08-11T07:18:05;3.20;;;2.57;;
2041;SDS011;1026;51.460;7.252;2022-08-11T07:20:48;2.17;;;2.00;;
2041;SDS011;1026;51.460;7.252;2022-08-11T07:23:30;3.27;;;2.90;;
2041;SDS011;1026;51.460;7.252;2022-08-11T07:26:15;3.00;;;2.77;;
2041;SDS011;1026;51.460;7.252;2022-08-11T07:28:59;3.90;;;3.50;;
2041;SDS011;1026;51.460;7.252;2022-08-11T07:36:48;2.67;;;2.47;;
2041;SDS011;1026;51.460;7.252;2022-08-11T07:39:21;4.03;;;3.03;;
2041;SDS011;1026;51.460;7.252;2022-08-11T07:41:52;4.10;;;3.80;;
2041;SDS011;1026;51.460;7.252;2022-08-11T07:44:19;7.43;;;4.43;;
2041;SDS011;1026;51.460;7.252;2022-08-11T07:46:47;6.00;;;4.00;;
2041;SDS011;1026;51.460;7.252;2022-08-11T07:49:30;5.43;;;4.03;;
2041;SDS011;1026;51.460;7.252;2022-08-11T07:52:13;4.83;;;4.40;;
2041;SDS011;1026;51.460;7.252;2022-08-11T07:54:56;3.70;;;3.40;;
2041;SDS011;1026;51.460;7.252;2022-08-11T07:57:26;2.87;;;2.67;;
2041;SDS011;1026;51.460;7.252;2022-08-11T08:00:09;3.93;;;3.63;;
2041;SDS011;1026;51.460;7.252;2022-08-11T08:02:50;5.90;;;4.17;;
2041;SDS011;1026;51.460;7.252;2022-08-11T08:05:32;3.73;;;3.30;;
2041;SDS011;1026;51.460;7.252;2022-08-11T08:08:14;3.87;;;3.57;;
2041;SDS011;1026;51.460;7.252;2022-08-11T08:10:55;6.27;;;4.07;;
2041;SDS011;1026;51.460;7.252;2022-08-11T08:13:36;7.00;;;4.20;;
2041;SDS011;1026;51.460;7.252;2022-08-11T08:16:18;4.03;;;3.60;;
2041;SDS011;1026;51.460;7.252;2022-08-11T08:19:00;4.20;;;3.87;;
2041;SDS011;1026;51.460;7.252;2022-08-11T08:21:26;4.20;;;3.80;;
2041;SDS011;1026;51.460;7.252;2022-08-11T08:23:51;6.80;;;4.30;;
2041;SDS011;1026;51.460;7.252;2022-08-11T08:26:17;4.13;;;3.67;;
2041;SDS011;1026;51.460;7.252;2022-08-11T08:29:00;4.30;;;3.90;;
2041;SDS011;1026;51.460;7.252;2022-08-11T08:31:45;5.13;;;4.10;;
2041;SDS011;1026;51.460;7.252;2022-08-11T08:34:12;5.60;;;3.90;;
2041;SDS011;1026;51.460;7.252;2022-08-11T08:36:41;5.57;;;4.53;;
2041;SDS011;1026;51.460;7.252;2022-08-11T08:39:08;4.30;;;3.50;;
2041;SDS011;1026;51.460;7.252;2022-08-11T08:41:37;4.30;;;3.57;;
2041;SDS011;1026;51.460;7.252;2022-08-11T08:44:06;3.37;;;3.17;;
2041;SDS011;1026;51.460;7.252;2022-08-11T08:46:36;4.63;;;4.23;;
2041;SDS011;1026;51.460;7.252;2022-08-11T08:49:07;4.37;;;3.97;;
2041;SDS011;1026;51.460;7.252;2022-08-11T08:51:38;4.13;;;3.83;;
2041;SDS011;1026;51.460;7.252;2022-08-11T08:54:09;4.70;;;4.13;;
2041;SDS011;1026;51.460;7.252;2022-08-11T08:56:40;4.23;;;3.83;;
2041;SDS011;1026;51.460;7.252;2022-08-11T08:59:09;9.57;;;4.63;;
2041;SDS011;1026;51.460;7.252;2022-08-11T09:01:41;5.43;;;4.93;;
2041;SDS011;1026;51.460;7.252;2022-08-11T09:04:12;5.03;;;4.00;;
2041;SDS011;1026;51.460;7.252;2022-08-11T09:06:38;4.03;;;3.73;;
2041;SDS011;1026;51.460;7.252;2022-08-11T09:09:07;3.77;;;3.47;;
2041;SDS011;1026;51.460;7.252;2022-08-11T09:11:36;3.47;;;3.27;;
2041;SDS011;1026;51.460;7.252;2022-08-11T09:14:20;5.13;;;3.83;;
2041;SDS011;1026;51.460;7.252;2022-08-11T09:16:48;4.70;;;4.30;;
2041;SDS011;1026;51.460;7.252;2022-08-11T09:19:16;3.93;;;3.50;;
2041;SDS011;1026;51.460;7.252;2022-08-11T09:21:45;6.03;;;3.93;;
2041;SDS011;1026;51.460;7.252;2022-08-11T09:24:28;4.40;;;3.50;;
2041;SDS011;1026;51.460;7.252;2022-08-11T09:27:10;4.13;;;3.77;;
2041;SDS011;1026;51.460;7.252;2022-08-11T09:29:35;14.37;;;5.70;;
2041;SDS011;1026;51.460;7.252;2022-08-11T09:32:02;4.03;;;3.70;;
2041;SDS011;1026;51.460;7.252;2022-08-11T09:34:31;4.77;;;4.47;;
2041;SDS011;1026;51.460;7.252;2022-08-11T09:37:00;4.10;;;3.70;;
2041;SDS011;1026;51.460;7.252;2022-08-11T09:39:42;10.60;;;5.10;;
2041;SDS011;1026;51.460;7.252;2022-08-11T09:42:23;4.33;;;3.93;;
2041;SDS011;1026;51.460;7.252;2022-08-11T09:45:10;4.00;;;3.70;;
2041;SDS011;1026;51.460;7.252;2022-08-11T09:47:37;7.00;;;3.80;;
2041;SDS011;1026;51.460;7.252;2022-08-11T09:50:04;3.57;;;3.27;;
2041;SDS011;1026;51.460;7.252;2022-08-11T09:52:37;3.77;;;3.47;;
2041;SDS011;1026;51.460;7.252;2022-08-11T09:55:04;4.13;;;3.83;;
2041;SDS011;1026;51.460;7.252;2022-08-11T09:57:37;9.97;;;4.90;;
2041;SDS011;1026;51.460;7.252;2022-08-11T10:00:18;4.10;;;3.60;;
2041;SDS011;1026;51.460;7.252;2022-08-11T10:02:51;4.27;;;2.80;;
2041;SDS011;1026;51.460;7.252;2022-08-11T10:05:19;3.50;;;3.20;;
2041;SDS011;1026;51.460;7.252;2022-08-11T10:08:01;3.80;;;3.00;;
2041;SDS011;1026;51.460;7.252;2022-08-11T10:10:28;3.70;;;3.40;;
2041;SDS011;1026;51.460;7.252;2022-08-11T10:13:00;3.80;;;3.50;;
2041;SDS011;1026;51.460;7.252;2022-08-11T10:15:29;7.43;;;4.70;;
2041;SDS011;1026;51.460;7.252;2022-08-11T10:18:09;3.87;;;3.57;;
2041;SDS011;1026;51.460;7.252;2022-08-11T10:20:56;6.47;;;4.23;;
2041;SDS011;1026;51.460;7.252;2022-08-11T10:23:25;4.00;;;3.57;;
2041;SDS011;1026;51.460;7.252;2022-08-11T10:26:08;3.93;;;3.53;;
2041;SDS011;1026;51.460;7.252;2022-08-11T10:28:51;3.60;;;3.30;;
2041;SDS011;1026;51.460;7.252;2022-08-11T10:31:18;4.03;;;3.73;;
2041;SDS011;1026;51.460;7.252;2022-08-11T10:34:00;3.70;;;3.23;;
2041;SDS011;1026;51.460;7.252;2022-08-11T10:36:30;3.97;;;3.67;;
2041;SDS011;1026;51.460;7.252;2022-08-11T10:38:58;4.37;;;3.97;;
2041;SDS011;1026;51.460;7.252;2022-08-11T10:41:24;3.77;;;3.47;;
2041;SDS011;1026;51.460;7.252;2022-08-11T10:44:07;4.43;;;3.50;;
2041;SDS011;1026;51.460;7.252;2022-08-11T10:46:34;4.17;;;3.87;;
2041;SDS011;1026;51.460;7.252;2022-08-11T10:49:15;4.30;;;4.00;;
2041;SDS011;1026;51.460;7.252;2022-08-11T10:51:42;3.60;;;3.30;;
2041;SDS011;1026;51.460;7.252;2022-08-11T10:54:24;4.87;;;4.10;;
2041;SDS011;1026;51.460;7.252;2022-08-11T10:57:05;3.90;;;3.67;;
2041;SDS011;1026;51.460;7.252;2022-08-11T10:59:47;7.77;;;3.77;;
2041;SDS011;1026;51.460;7.252;2022-08-11T11:02:13;4.37;;;4.07;;
2041;SDS011;1026;51.460;7.252;2022-08-11T11:04:47;4.00;;;3.70;;
2041;SDS011;1026;51.460;7.252;2022-08-11T11:07:19;4.00;;;3.70;;
2041;SDS011;1026;51.460;7.252;2022-08-11T11:09:49;4.33;;;3.93;;
2041;SDS011;1026;51.460;7.252;2022-08-11T11:12:22;4.00;;;3.60;;
2041;SDS011;1026;51.460;7.252;2022-08-11T11:15:13;4.37;;;4.07;;
2041;SDS011;1026;51.460;7.252;2022-08-11T11:18:00;3.47;;;3.27;;
2041;SDS011;1026;51.460;7.252;2022-08-11T11:20:34;5.40;;;3.30;;
2041;SDS011;1026;51.460;7.252;2022-08-11T11:23:10;4.37;;;4.00;;
2041;SDS011;1026;51.460;7.252;2022-08-11T11:25:58;4.90;;;3.60;;
2041;SDS011;1026;51.460;7.252;2022-08-11T11:28:47;3.87;;;3.47;;
2041;SDS011;1026;51.460;7.252;2022-08-11T11:34:05;4.23;;;3.93;;
2041;SDS011;1026;51.460;7.252;2022-08-11T11:36:55;4.20;;;3.90;;
2041;SDS011;1026;51.460;7.252;2022-08-11T11:39:23;5.20;;;4.20;;
2041;SDS011;1026;51.460;7.252;2022-08-11T11:41:53;3.73;;;3.23;;
2041;SDS011;1026;51.460;7.252;2022-08-11T11:44:22;4.10;;;3.40;;
2041;SDS011;1026;51.460;7.252;2022-08-11T11:46:49;6.70;;;3.53;;
2041;SDS011;1026;51.460;7.252;2022-08-11T11:49:17;3.70;;;3.40;;
2041;SDS011;1026;51.460;7.252;2022-08-11T11:51:46;3.73;;;3.53;;
2041;SDS011;1026;51.460;7.252;2022-08-11T11:54:16;4.70;;;4.30;;
2041;SDS011;1026;51.460;7.252;2022-08-11T11:56:46;6.00;;;4.23;;
2041;SDS011;1026;51.460;7.252;2022-08-11T11:59:12;4.03;;;3.73;;
2041;SDS011;1026;51.460;7.252;2022-08-11T12:01:54;4.63;;;4.17;;
2041;SDS011;1026;51.460;7.252;2022-08-11T12:04:21;5.43;;;3.83;;
2041;SDS011;1026;51.460;7.252;2022-08-11T12:06:48;4.00;;;3.70;;
2041;SDS011;1026;51.460;7.252;2022-08-11T12:09:16;5.80;;;4.03;;
2041;SDS011;1026;51.460;7.252;2022-08-11T12:11:47;4.90;;;4.50;;
2041;SDS011;1026;51.460;7.252;2022-08-11T12:14:29;4.37;;;4.07;;
2041;SDS011;1026;51.460;7.252;2022-08-11T12:16:55;4.60;;;4.20;;
2041;SDS011;1026;51.460;7.252;2022-08-11T12:19:23;4.70;;;4.40;;
2041;SDS011;1026;51.460;7.252;2022-08-11T12:21:53;4.03;;;3.70;;
2041;SDS011;1026;51.460;7.252;2022-08-11T12:24:36;3.97;;;3.67;;
2041;SDS011;1026;51.460;7.252;2022-08-11T12:27:18;3.90;;;3.60;;
2041;SDS011;1026;51.460;7.252;2022-08-11T12:29:46;3.97;;;3.67;;
2041;SDS011;1026;51.460;7.252;2022-08-11T12:32:14;4.27;;;4.03;;
2041;SDS011;1026;51.460;7.252;2022-08-11T12:34:41;4.13;;;3.83;;
2041;SDS011;1026;51.460;7.252;2022-08-11T12:37:07;4.03;;;3.67;;
2041;SDS011;1026;51.460;7.252;2022-08-11T12:39:37;3.97;;;3.67;;
2041;SDS011;1026;51.460;7.252;2022-08-11T12:42:25;4.40;;;4.00;;
2041;SDS011;1026;51.460;7.252;2022-08-11T12:45:10;4.07;;;3.67;;
2041;SDS011;1026;51.460;7.252;2022-08-11T12:47:58;4.70;;;4.30;;
2041;SDS011;1026;51.460;7.252;2022-08-11T12:50:43;7.70;;;3.80;;
2041;SDS011;1026;51.460;7.252;2022-08-11T12:53:30;4.67;;;4.20;;
2041;SDS011;1026;51.460;7.252;2022-08-11T12:55:59;4.70;;;4.30;;
2041;SDS011;1026;51.460;7.252;2022-08-11T12:58:45;5.20;;;4.90;;
2041;SDS011;1026;51.460;7.252;2022-08-11T13:01:13;4.47;;;4.17;;
2041;SDS011;1026;51.460;7.252;2022-08-11T13:03:55;5.30;;;4.90;;
2041;SDS011;1026;51.460;7.252;2022-08-11T13:06:37;6.33;;;4.20;;
2041;SDS011;1026;51.460;7.252;2022-08-11T13:09:03;4.47;;;4.17;;
2041;SDS011;1026;51.460;7.252;2022-08-11T13:11:30;7.93;;;4.63;;
2041;SDS011;1026;51.460;7.252;2022-08-11T13:14:13;4.60;;;4.30;;
2041;SDS011;1026;51.460;7.252;2022-08-11T13:16:41;4.67;;;4.27;;
2041;SDS011;1026;51.460;7.252;2022-08-11T13:19:24;4.10;;;3.77;;
2041;SDS011;1026;51.460;7.252;2022-08-11T13:21:50;5.33;;;4.40;;
2041;SDS011;1026;51.460;7.252;2022-08-11T13:24:17;5.13;;;4.47;;
2041;SDS011;1026;51.460;7.252;2022-08-11T13:26:45;4.70;;;4.07;;
2041;SDS011;1026;51.460;7.252;2022-08-11T13:29:11;4.20;;;3.83;;
2041;SDS011;1026;51.460;7.252;2022-08-11T13:31:39;4.27;;;3.97;;
2041;SDS011;1026;51.460;7.252;2022-08-11T13:34:06;4.70;;;4.30;;
2041;SDS011;1026;51.460;7.252;2022-08-11T13:36:33;5.80;;;4.43;;
2041;SDS011;1026;51.460;7.252;2022-08-11T13:39:00;4.00;;;3.80;;
2041;SDS011;1026;51.460;7.252;2022-08-11T13:41:27;4.20;;;3.90;;
2041;SDS011;1026;51.460;7.252;2022-08-11T13:44:10;4.33;;;4.03;;
2041;SDS011;1026;51.460;7.252;2022-08-11T13:46:39;4.17;;;3.77;;
2041;SDS011;1026;51.460;7.252;2022-08-11T13:49:07;4.90;;;4.40;;
2041;SDS011;1026;51.460;7.252;2022-08-11T13:51:35;4.30;;;3.90;;
2041;SDS011;1026;51.460;7.252;2022-08-11T13:54:11;6.50;;;4.20;;
2041;SDS011;1026;51.460;7.252;2022-08-11T13:56:43;4.57;;;4.23;;
2041;SDS011;1026;51.460;7.252;2022-08-11T13:59:12;3.97;;;3.77;;
2041;SDS011;1026;51.460;7.252;2022-08-11T14:01:41;4.10;;;3.80;;
2041;SDS011;1026;51.460;7.252;2022-08-11T14:04:13;4.67;;;4.20;;
2041;SDS011;1026;51.460;7.252;2022-08-11T14:06:44;4.80;;;3.90;;
2041;SDS011;1026;51.460;7.252;2022-08-11T14:09:14;4.63;;;4.23;;
2041;SDS011;1026;51.460;7.252;2022-08-11T14:11:44;5.17;;;4.77;;
2041;SDS011;1026;51.460;7.252;2022-08-11T14:14:26;5.00;;;4.20;;
2041;SDS011;1026;51.460;7.252;2022-08-11T14:16:57;4.20;;;3.83;;
2041;SDS011;1026;51.460;7.252;2022-08-11T14:19:29;4.70;;;4.30;;
2041;SDS011;1026;51.460;7.252;2022-08-11T14:22:00;4.50;;;4.10;;
2041;SDS011;1026;51.460;7.252;2022-08-11T14:24:36;4.73;;;4.13;;
2041;SDS011;1026;51.460;7.252;2022-08-11T14:27:04;4.50;;;4.10;;
2041;SDS011;1026;51.460;7.252;2022-08-11T14:29:32;4.73;;;4.30;;
2041;SDS011;1026;51.460;7.252;2022-08-11T14:32:03;4.60;;;4.20;;
2041;SDS011;1026;51.460;7.252;2022-08-11T14:34:31;4.73;;;4.30;;
2041;SDS011;1026;51.460;7.252;2022-08-11T14:36:59;10.07;;;4.50;;
2041;SDS011;1026;51.460;7.252;2022-08-11T14:42:09;4.77;;;4.47;;
2041;SDS011;1026;51.460;7.252;2022-08-11T14:44:54;4.63;;;4.23;;
2041;SDS011;1026;51.460;7.252;2022-08-11T14:47:40;4.50;;;4.10;;
2041;SDS011;1026;51.460;7.252;2022-08-11T14:50:10;4.53;;;3.97;;
2041;SDS011;1026;51.460;7.252;2022-08-11T14:52:39;4.47;;;4.10;;
2041;SDS011;1026;51.460;7.252;2022-08-11T14:55:11;4.53;;;3.60;;
2041;SDS011;1026;51.460;7.252;2022-08-11T14:57:53;4.47;;;4.20;;
2041;SDS011;1026;51.460;7.252;2022-08-11T15:00:20;4.67;;;4.10;;
2041;SDS011;1026;51.460;7.252;2022-08-11T15:02:46;4.10;;;3.80;;
2041;SDS011;1026;51.460;7.252;2022-08-11T15:05:28;4.13;;;3.83;;
2041;SDS011;1026;51.460;7.252;2022-08-11T15:07:55;4.70;;;4.40;;
2041;SDS011;1026;51.460;7.252;2022-08-11T15:10:22;5.47;;;4.30;;
2041;SDS011;1026;51.460;7.252;2022-08-11T15:12:49;4.53;;;4.23;;
2041;SDS011;1026;51.460;7.252;2022-08-11T15:15:16;4.43;;;4.03;;
2041;SDS011;1026;51.460;7.252;2022-08-11T15:17:59;5.70;;;3.90;;
2041;SDS011;1026;51.460;7.252;2022-08-11T15:20:28;6.80;;;3.87;;
2041;SDS011;1026;51.460;7.252;2022-08-11T15:23:10;4.87;;;4.57;;
2041;SDS011;1026;51.460;7.252;2022-08-11T15:31:35;5.07;;;4.10;;
2041;SDS011;1026;51.460;7.252;2022-08-11T15:34:19;4.97;;;4.67;;
2041;SDS011;1026;51.460;7.252;2022-08-11T15:37:06;4.60;;;4.30;;
2041;SDS011;1026;51.460;7.252;2022-08-11T15:39:54;4.90;;;4.60;;
2041;SDS011;1026;51.460;7.252;2022-08-11T15:42:55;4.77;;;4.47;;
2041;SDS011;1026;51.460;7.252;2022-08-11T15:45:41;4.17;;;3.77;;
2041;SDS011;1026;51.460;7.252;2022-08-11T15:48:13;4.87;;;4.57;;
2041;SDS011;1026;51.460;7.252;2022-08-11T15:50:48;4.73;;;4.27;;
2041;SDS011;1026;51.460;7.252;2022-08-11T15:53:19;6.00;;;4.50;;
2041;SDS011;1026;51.460;7.252;2022-08-11T15:55:46;4.43;;;4.10;;
2041;SDS011;1026;51.460;7.252;2022-08-11T15:58:13;5.07;;;4.63;;
2041;SDS011;1026;51.460;7.252;2022-08-11T16:00:58;4.20;;;3.90;;
2041;SDS011;1026;51.460;7.252;2022-08-11T16:03:42;3.90;;;3.70;;
2041;SDS011;1026;51.460;7.252;2022-08-11T16:06:29;4.30;;;4.00;;
2041;SDS011;1026;51.460;7.252;2022-08-11T16:08:57;3.77;;;3.57;;
2041;SDS011;1026;51.460;7.252;2022-08-11T16:11:27;4.63;;;4.30;;
2041;SDS011;1026;51.460;7.252;2022-08-11T16:13:53;5.10;;;3.97;;
2041;SDS011;1026;51.460;7.252;2022-08-11T16:16:36;3.83;;;3.53;;
2041;SDS011;1026;51.460;7.252;2022-08-11T16:19:03;6.53;;;4.67;;
2041;SDS011;1026;51.460;7.252;2022-08-11T16:21:32;5.00;;;4.60;;
2041;SDS011;1026;51.460;7.252;2022-08-11T16:24:02;4.83;;;4.50;;
2041;SDS011;1026;51.460;7.252;2022-08-11T16:26:30;5.10;;;4.73;;
2041;SDS011;1026;51.460;7.252;2022-08-11T16:28:59;5.20;;;4.80;;
2041;SDS011;1026;51.460;7.252;2022-08-11T16:31:25;4.50;;;4.20;;
2041;SDS011;1026;51.460;7.252;2022-08-11T16:33:53;5.20;;;4.70;;
2041;SDS011;1026;51.460;7.252;2022-08-11T16:36:20;4.47;;;4.07;;
2041;SDS011;1026;51.460;7.252;2022-08-11T16:39:03;4.77;;;4.47;;
2041;SDS011;1026;51.460;7.252;2022-08-11T16:41:31;5.13;;;4.60;;
2041;SDS011;1026;51.460;7.252;2022-08-11T16:44:15;4.80;;;4.50;;
2041;SDS011;1026;51.460;7.252;2022-08-11T16:46:58;4.40;;;4.10;;
2041;SDS011;1026;51.460;7.252;2022-08-11T16:49:34;4.30;;;4.00;;
2041;SDS011;1026;51.460;7.252;2022-08-11T16:52:02;5.10;;;4.80;;
2041;SDS011;1026;51.460;7.252;2022-08-11T16:54:32;4.83;;;4.37;;
2041;SDS011;1026;51.460;7.252;2022-08-11T16:56:59;5.00;;;4.60;;
2041;SDS011;1026;51.460;7.252;2022-08-11T16:59:44;4.23;;;4.00;;
2041;SDS011;1026;51.460;7.252;2022-08-11T17:02:11;4.83;;;4.60;;
2041;SDS011;1026;51.460;7.252;2022-08-11T17:05:01;4.20;;;4.00;;
2041;SDS011;1026;51.460;7.252;2022-08-11T17:07:48;5.47;;;4.97;;
2041;SDS011;1026;51.460;7.252;2022-08-11T17:10:32;4.97;;;4.63;;
2041;SDS011;1026;51.460;7.252;2022-08-11T17:13:19;4.80;;;4.50;;
2041;SDS011;1026;51.460;7.252;2022-08-11T17:15:50;4.80;;;4.50;;
2041;SDS011;1026;51.460;7.252;2022-08-11T17:18:43;5.00;;;4.70;;
2041;SDS011;1026;51.460;7.252;2022-08-11T17:21:14;5.23;;;4.87;;
2041;SDS011;1026;51.460;7.252;2022-08-11T17:23:48;5.17;;;4.77;;
2041;SDS011;1026;51.460;7.252;2022-08-11T17:26:17;4.83;;;4.53;;
2041;SDS011;1026;51.460;7.252;2022-08-11T17:28:45;5.10;;;4.80;;
2041;SDS011;1026;51.460;7.252;2022-08-11T17:31:15;5.37;;;4.87;;
2041;SDS011;1026;51.460;7.252;2022-08-11T17:34:00;4.80;;;4.50;;
2041;SDS011;1026;51.460;7.252;2022-08-11T17:36:42;5.13;;;4.77;;
2041;SDS011;1026;51.460;7.252;2022-08-11T17:39:09;5.00;;;4.63;;
2041;SDS011;1026;51.460;7.252;2022-08-11T17:41:37;5.37;;;4.97;;
2041;SDS011;1026;51.460;7.252;2022-08-11T17:44:19;4.17;;;3.93;;
2041;SDS011;1026;51.460;7.252;2022-08-11T17:47:05;5.77;;;5.47;;
2041;SDS011;1026;51.460;7.252;2022-08-11T17:49:46;5.50;;;5.10;;
2041;SDS011;1026;51.460;7.252;2022-08-11T17:52:14;4.93;;;4.60;;
2041;SDS011;1026;51.460;7.252;2022-08-11T17:54:58;6.87;;;6.37;;
2041;SDS011;1026;51.460;7.252;2022-08-11T17:57:41;5.60;;;5.10;;
2041;SDS011;1026;51.460;7.252;2022-08-11T18:00:22;6.27;;;5.77;;
2041;SDS011;1026;51.460;7.252;2022-08-11T18:02:49;4.53;;;4.23;;
2041;SDS011;1026;51.460;7.252;2022-08-11T18:05:33;4.97;;;4.67;;
2041;SDS011;1026;51.460;7.252;2022-08-11T18:08:03;4.37;;;4.17;;
2041;SDS011;1026;51.460;7.252;2022-08-11T18:10:47;4.80;;;4.50;;
2041;SDS011;1026;51.460;7.252;2022-08-11T18:13:30;5.43;;;5.03;;
2041;SDS011;1026;51.460;7.252;2022-08-11T18:16:13;5.37;;;4.87;;
2041;SDS011;1026;51.460;7.252;2022-08-11T18:18:55;5.10;;;4.70;;
2041;SDS011;1026;51.460;7.252;2022-08-11T18:21:36;5.40;;;5.00;;
2041;SDS011;1026;51.460;7.252;2022-08-11T18:24:22;4.17;;;3.87;;
2041;SDS011;1026;51.460;7.252;2022-08-11T18:27:06;5.50;;;5.10;;
2041;SDS011;1026;51.460;7.252;2022-08-11T18:29:50;4.43;;;4.13;;
2041;SDS011;1026;51.460;7.252;2022-08-11T18:32:34;4.07;;;3.87;;
2041;SDS011;1026;51.460;7.252;2022-08-11T18:35:17;5.27;;;4.90;;
2041;SDS011;1026;51.460;7.252;2022-08-11T18:38:00;4.80;;;4.50;;
2041;SDS011;1026;51.460;7.252;2022-08-11T18:40:43;4.50;;;4.20;;
2041;SDS011;1026;51.460;7.252;2022-08-11T18:43:26;4.40;;;4.20;;
2041;SDS011;1026;51.460;7.252;2022-08-11T18:46:12;4.60;;;4.30;;
2041;SDS011;1026;51.460;7.252;2022-08-11T18:48:58;4.50;;;4.20;;
2041;SDS011;1026;51.460;7.252;2022-08-11T18:51:44;4.50;;;4.20;;
2041;SDS011;1026;51.460;7.252;2022-08-11T18:54:27;4.40;;;4.10;;
2041;SDS011;1026;51.460;7.252;2022-08-11T18:57:08;4.67;;;4.37;;
2041;SDS011;1026;51.460;7.252;2022-08-11T18:59:52;3.90;;;3.70;;
2041;SDS011;1026;51.460;7.252;2022-08-11T19:02:35;4.10;;;3.80;;
2041;SDS011;1026;51.460;7.252;2022-08-11T19:05:18;4.27;;;4.07;;
2041;SDS011;1026;51.460;7.252;2022-08-11T19:08:01;4.00;;;3.80;;
2041;SDS011;1026;51.460;7.252;2022-08-11T19:10:44;4.33;;;4.03;;
2041;SDS011;1026;51.460;7.252;2022-08-11T19:13:27;3.80;;;3.50;;
2041;SDS011;1026;51.460;7.252;2022-08-11T19:16:10;4.23;;;3.93;;